sensor_id;sensor_type;location;lat;lon;timestamp;P1;durP1;ratioP1;P2;durP2;ratioP2
15516;SDS011;7860;52.030;5.572;2023-06-22T00:03:31;10.67;;;6.01;;
15516;SDS011;7860;52.030;5.572;2023-06-22T00:03:31;9.95;;;5.37;;
15516;SDS011;7860;52.030;5.572;2023-06-22T00:03:31;9.72;;;5.77;;
15516;SDS011;7860;52.030;5.572;2023-06-22T00:03:54;9.83;;;5.98;;
15516;SDS011;7860;52.030;5.572;2023-06-22T00:04:54;9.69;;;5.88;;
15516;SDS011;7860;52.030;5.572;2023-06-22T00:05:54;9.14;;;5.67;;
15516;SDS011;7860;52.030;5.572;2023-06-22T00:06:55;10.25;;;5.89;;
15516;SDS011;7860;52.030;5.572;2023-06-22T00:07:55;10.68;;;5.72;;
15516;SDS011;7860;52.030;5.572;2023-06-22T00:08:55;10.65;;;5.50;;
15516;SDS011;7860;52.030;5.572;2023-06-22T00:09:55;8.61;;;5.16;;
15516;SDS011;7860;52.030;5.572;2023-06-22T00:10:55;8.48;;;5.18;;
15516;SDS011;7860;52.030;5.572;2023-06-22T00:11:55;9.18;;;5.39;;
15516;SDS011;7860;52.030;5.572;2023-06-22T00:12:55;9.12;;;5.68;;
15516;SDS011;7860;52.030;5.572;2023-06-22T00:13:55;10.96;;;5.67;;
15516;SDS011;7860;52.030;5.572;2023-06-22T00:14:55;10.54;;;5.60;;
15516;SDS011;7860;52.030;5.572;2023-06-22T00:15:55;9.66;;;5.61;;
15516;SDS011;7860;52.030;5.572;2023-06-22T00:16:55;10.05;;;5.50;;
15516;SDS011;7860;52.030;5.572;2023-06-22T00:17:56;9.15;;;5.34;;
15516;SDS011;7860;52.030;5.572;2023-06-22T00:18:56;10.61;;;5.94;;
15516;SDS011;7860;52.030;5.572;2023-06-22T00:19:56;10.01;;;5.46;;
15516;SDS011;7860;52.030;5.572;2023-06-22T00:20:56;9.42;;;5.46;;
15516;SDS011;7860;52.030;5.572;2023-06-22T00:21:56;9.69;;;5.59;;
15516;SDS011;7860;52.030;5.572;2023-06-22T00:22:56;8.79;;;5.44;;
15516;SDS011;7860;52.030;5.572;2023-06-22T00:23:56;10.20;;;5.95;;
15516;SDS011;7860;52.030;5.572;2023-06-22T00:24:56;9.71;;;5.60;;
15516;SDS011;7860;52.030;5.572;2023-06-22T00:25:56;8.66;;;5.29;;
15516;SDS011;7860;52.030;5.572;2023-06-22T00:26:56;9.70;;;5.90;;
15516;SDS011;7860;52.030;5.572;2023-06-22T00:27:56;9.24;;;5.46;;
15516;SDS011;7860;52.030;5.572;2023-06-22T00:28:57;9.85;;;5.87;;
15516;SDS011;7860;52.030;5.572;2023-06-22T00:29:57;9.40;;;5.79;;
15516;SDS011;7860;52.030;5.572;2023-06-22T00:30:57;11.53;;;6.26;;
15516;SDS011;7860;52.030;5.572;2023-06-22T00:31:57;9.63;;;5.95;;
15516;SDS011;7860;52.030;5.572;2023-06-22T00:32:57;9.94;;;6.25;;
15516;SDS011;7860;52.030;5.572;2023-06-22T00:33:57;13.11;;;6.32;;
15516;SDS011;7860;52.030;5.572;2023-06-22T00:34:57;9.95;;;5.61;;
15516;SDS011;7860;52.030;5.572;2023-06-22T00:35:57;10.83;;;6.19;;
15516;SDS011;7860;52.030;5.572;2023-06-22T00:36:57;10.03;;;6.14;;
15516;SDS011;7860;52.030;5.572;2023-06-22T00:37:58;10.56;;;6.24;;
15516;SDS011;7860;52.030;5.572;2023-06-22T00:38:57;10.15;;;5.89;;
15516;SDS011;7860;52.030;5.572;2023-06-22T00:39:57;10.05;;;6.33;;
15516;SDS011;7860;52.030;5.572;2023-06-22T00:40:58;9.66;;;6.12;;
15516;SDS011;7860;52.030;5.572;2023-06-22T00:41:58;9.68;;;6.35;;
15516;SDS011;7860;52.030;5.572;2023-06-22T00:42:58;9.39;;;6.06;;
15516;SDS011;7860;52.030;5.572;2023-06-22T00:43:58;10.89;;;6.18;;
15516;SDS011;7860;52.030;5.572;2023-06-22T00:44:58;10.77;;;6.56;;
15516;SDS011;7860;52.030;5.572;2023-06-22T00:45:58;10.86;;;6.23;;
15516;SDS011;7860;52.030;5.572;2023-06-22T00:46:58;12.65;;;6.63;;
15516;SDS011;7860;52.030;5.572;2023-06-22T00:47:58;11.38;;;6.37;;
15516;SDS011;7860;52.030;5.572;2023-06-22T00:48:58;9.50;;;6.45;;
15516;SDS011;7860;52.030;5.572;2023-06-22T00:49:58;10.69;;;6.63;;
15516;SDS011;7860;52.030;5.572;2023-06-22T00:50:58;10.57;;;6.80;;
15516;SDS011;7860;52.030;5.572;2023-06-22T00:51:58;11.04;;;6.60;;
15516;SDS011;7860;52.030;5.572;2023-06-22T00:52:59;12.36;;;6.95;;
15516;SDS011;7860;52.030;5.572;2023-06-22T00:53:59;10.28;;;6.55;;
15516;SDS011;7860;52.030;5.572;2023-06-22T00:54:59;11.18;;;6.83;;
15516;SDS011;7860;52.030;5.572;2023-06-22T00:55:59;11.74;;;6.89;;
15516;SDS011;7860;52.030;5.572;2023-06-22T00:56:59;10.81;;;6.43;;
15516;SDS011;7860;52.030;5.572;2023-06-22T00:57:59;12.46;;;6.75;;
15516;SDS011;7860;52.030;5.572;2023-06-22T00:58:59;12.15;;;7.60;;
15516;SDS011;7860;52.030;5.572;2023-06-22T00:59:59;11.37;;;7.31;;
15516;SDS011;7860;52.030;5.572;2023-06-22T01:00:59;11.62;;;7.49;;
15516;SDS011;7860;52.030;5.572;2023-06-22T01:01:59;10.96;;;7.30;;
15516;SDS011;7860;52.030;5.572;2023-06-22T01:02:59;12.90;;;7.62;;
15516;SDS011;7860;52.030;5.572;2023-06-22T01:04:00;12.19;;;7.97;;
15516;SDS011;7860;52.030;5.572;2023-06-22T01:05:00;12.00;;;7.78;;
15516;SDS011;7860;52.030;5.572;2023-06-22T01:06:02;12.13;;;7.50;;
15516;SDS011;7860;52.030;5.572;2023-06-22T01:07:01;11.67;;;6.85;;
15516;SDS011;7860;52.030;5.572;2023-06-22T01:08:03;10.56;;;7.44;;
15516;SDS011;7860;52.030;5.572;2023-06-22T01:09:01;12.01;;;7.30;;
15516;SDS011;7860;52.030;5.572;2023-06-22T01:10:03;11.50;;;7.62;;
15516;SDS011;7860;52.030;5.572;2023-06-22T01:11:03;12.34;;;7.80;;
15516;SDS011;7860;52.030;5.572;2023-06-22T01:12:01;13.27;;;7.67;;
15516;SDS011;7860;52.030;5.572;2023-06-22T01:13:01;12.79;;;8.00;;
15516;SDS011;7860;52.030;5.572;2023-06-22T01:14:02;11.28;;;7.64;;
15516;SDS011;7860;52.030;5.572;2023-06-22T01:15:03;11.98;;;7.66;;
15516;SDS011;7860;52.030;5.572;2023-06-22T01:16:02;12.47;;;7.77;;
15516;SDS011;7860;52.030;5.572;2023-06-22T01:17:01;13.65;;;8.11;;
15516;SDS011;7860;52.030;5.572;2023-06-22T01:18:01;11.93;;;7.79;;
15516;SDS011;7860;52.030;5.572;2023-06-22T01:19:01;11.23;;;7.84;;
15516;SDS011;7860;52.030;5.572;2023-06-22T01:20:01;11.43;;;7.85;;
15516;SDS011;7860;52.030;5.572;2023-06-22T01:21:01;11.62;;;7.89;;
15516;SDS011;7860;52.030;5.572;2023-06-22T01:22:01;11.74;;;7.64;;
15516;SDS011;7860;52.030;5.572;2023-06-22T01:23:04;13.55;;;8.32;;
15516;SDS011;7860;52.030;5.572;2023-06-22T01:24:06;11.75;;;8.12;;
15516;SDS011;7860;52.030;5.572;2023-06-22T01:25:05;13.23;;;8.58;;
15516;SDS011;7860;52.030;5.572;2023-06-22T01:26:05;13.46;;;8.61;;
15516;SDS011;7860;52.030;5.572;2023-06-22T01:27:06;12.34;;;8.27;;
15516;SDS011;7860;52.030;5.572;2023-06-22T01:28:03;12.37;;;7.92;;
15516;SDS011;7860;52.030;5.572;2023-06-22T01:29:02;12.25;;;8.44;;
15516;SDS011;7860;52.030;5.572;2023-06-22T01:30:02;12.17;;;7.67;;
15516;SDS011;7860;52.030;5.572;2023-06-22T01:31:02;12.49;;;7.95;;
15516;SDS011;7860;52.030;5.572;2023-06-22T01:32:02;12.45;;;8.69;;
15516;SDS011;7860;52.030;5.572;2023-06-22T01:33:02;12.31;;;8.01;;
15516;SDS011;7860;52.030;5.572;2023-06-22T01:34:02;12.06;;;8.18;;
15516;SDS011;7860;52.030;5.572;2023-06-22T01:35:03;12.86;;;8.07;;
15516;SDS011;7860;52.030;5.572;2023-06-22T01:36:03;12.13;;;7.94;;
15516;SDS011;7860;52.030;5.572;2023-06-22T01:37:03;11.78;;;7.79;;
15516;SDS011;7860;52.030;5.572;2023-06-22T01:38:03;12.13;;;7.91;;
15516;SDS011;7860;52.030;5.572;2023-06-22T01:39:02;13.58;;;8.61;;
15516;SDS011;7860;52.030;5.572;2023-06-22T01:40:04;12.81;;;8.02;;
15516;SDS011;7860;52.030;5.572;2023-06-22T01:41:03;14.37;;;8.59;;
15516;SDS011;7860;52.030;5.572;2023-06-22T01:42:03;11.50;;;7.89;;
15516;SDS011;7860;52.030;5.572;2023-06-22T01:43:03;10.69;;;7.40;;
15516;SDS011;7860;52.030;5.572;2023-06-22T01:44:03;12.57;;;7.87;;
15516;SDS011;7860;52.030;5.572;2023-06-22T01:45:03;11.20;;;7.63;;
15516;SDS011;7860;52.030;5.572;2023-06-22T01:46:03;11.47;;;7.87;;
15516;SDS011;7860;52.030;5.572;2023-06-22T01:47:03;11.80;;;7.86;;
15516;SDS011;7860;52.030;5.572;2023-06-22T01:48:03;13.08;;;8.19;;
15516;SDS011;7860;52.030;5.572;2023-06-22T01:49:03;14.01;;;8.98;;
15516;SDS011;7860;52.030;5.572;2023-06-22T01:50:04;12.27;;;8.02;;
15516;SDS011;7860;52.030;5.572;2023-06-22T01:51:03;12.47;;;8.20;;
15516;SDS011;7860;52.030;5.572;2023-06-22T01:52:03;11.63;;;7.60;;
15516;SDS011;7860;52.030;5.572;2023-06-22T01:53:03;13.33;;;8.02;;
15516;SDS011;7860;52.030;5.572;2023-06-22T01:54:05;12.20;;;8.02;;
15516;SDS011;7860;52.030;5.572;2023-06-22T01:55:04;12.73;;;8.59;;
15516;SDS011;7860;52.030;5.572;2023-06-22T01:56:04;12.10;;;8.22;;
15516;SDS011;7860;52.030;5.572;2023-06-22T01:57:04;13.64;;;8.93;;
15516;SDS011;7860;52.030;5.572;2023-06-22T01:58:04;13.07;;;7.92;;
15516;SDS011;7860;52.030;5.572;2023-06-22T01:59:05;11.78;;;8.03;;
15516;SDS011;7860;52.030;5.572;2023-06-22T02:00:06;13.18;;;8.41;;
15516;SDS011;7860;52.030;5.572;2023-06-22T02:01:09;12.24;;;8.08;;
15516;SDS011;7860;52.030;5.572;2023-06-22T02:02:05;12.90;;;8.08;;
15516;SDS011;7860;52.030;5.572;2023-06-22T02:03:05;14.42;;;8.40;;
15516;SDS011;7860;52.030;5.572;2023-06-22T02:04:06;13.99;;;8.37;;
15516;SDS011;7860;52.030;5.572;2023-06-22T02:05:05;12.59;;;8.22;;
15516;SDS011;7860;52.030;5.572;2023-06-22T02:06:05;12.87;;;8.93;;
15516;SDS011;7860;52.030;5.572;2023-06-22T02:07:05;12.54;;;8.28;;
15516;SDS011;7860;52.030;5.572;2023-06-22T02:08:06;14.43;;;8.37;;
15516;SDS011;7860;52.030;5.572;2023-06-22T02:09:06;12.35;;;8.20;;
15516;SDS011;7860;52.030;5.572;2023-06-22T02:10:05;12.56;;;8.36;;
15516;SDS011;7860;52.030;5.572;2023-06-22T02:11:05;11.79;;;8.23;;
15516;SDS011;7860;52.030;5.572;2023-06-22T02:12:05;13.04;;;8.01;;
15516;SDS011;7860;52.030;5.572;2023-06-22T02:13:06;12.88;;;8.14;;
15516;SDS011;7860;52.030;5.572;2023-06-22T02:14:05;12.50;;;8.08;;
15516;SDS011;7860;52.030;5.572;2023-06-22T02:15:06;13.72;;;8.14;;
15516;SDS011;7860;52.030;5.572;2023-06-22T02:16:05;11.67;;;7.88;;
15516;SDS011;7860;52.030;5.572;2023-06-22T02:17:05;12.58;;;7.75;;
15516;SDS011;7860;52.030;5.572;2023-06-22T02:18:05;12.54;;;8.02;;
15516;SDS011;7860;52.030;5.572;2023-06-22T02:19:05;12.50;;;8.13;;
15516;SDS011;7860;52.030;5.572;2023-06-22T02:20:06;13.03;;;7.49;;
15516;SDS011;7860;52.030;5.572;2023-06-22T02:21:06;12.67;;;8.00;;
15516;SDS011;7860;52.030;5.572;2023-06-22T02:22:06;10.74;;;7.19;;
15516;SDS011;7860;52.030;5.572;2023-06-22T02:23:06;13.11;;;8.51;;
15516;SDS011;7860;52.030;5.572;2023-06-22T02:24:06;11.91;;;8.65;;
15516;SDS011;7860;52.030;5.572;2023-06-22T02:25:06;13.07;;;8.19;;
15516;SDS011;7860;52.030;5.572;2023-06-22T02:26:06;12.16;;;8.11;;
15516;SDS011;7860;52.030;5.572;2023-06-22T02:27:06;11.92;;;8.02;;
15516;SDS011;7860;52.030;5.572;2023-06-22T02:28:06;13.21;;;8.04;;
15516;SDS011;7860;52.030;5.572;2023-06-22T02:29:06;12.75;;;8.43;;
15516;SDS011;7860;52.030;5.572;2023-06-22T02:30:07;11.12;;;7.54;;
15516;SDS011;7860;52.030;5.572;2023-06-22T02:31:06;11.75;;;7.67;;
15516;SDS011;7860;52.030;5.572;2023-06-22T02:32:07;10.96;;;7.55;;
15516;SDS011;7860;52.030;5.572;2023-06-22T02:33:06;12.55;;;8.41;;
15516;SDS011;7860;52.030;5.572;2023-06-22T02:34:06;12.75;;;8.38;;
15516;SDS011;7860;52.030;5.572;2023-06-22T02:35:07;11.46;;;7.60;;
15516;SDS011;7860;52.030;5.572;2023-06-22T02:36:07;12.05;;;7.71;;
15516;SDS011;7860;52.030;5.572;2023-06-22T02:37:07;12.75;;;7.89;;
15516;SDS011;7860;52.030;5.572;2023-06-22T02:38:07;14.44;;;8.65;;
15516;SDS011;7860;52.030;5.572;2023-06-22T02:39:07;12.59;;;8.08;;
15516;SDS011;7860;52.030;5.572;2023-06-22T02:40:07;13.53;;;7.99;;
15516;SDS011;7860;52.030;5.572;2023-06-22T02:41:07;12.92;;;8.13;;
15516;SDS011;7860;52.030;5.572;2023-06-22T02:42:07;11.97;;;7.73;;
15516;SDS011;7860;52.030;5.572;2023-06-22T02:43:07;11.40;;;7.84;;
15516;SDS011;7860;52.030;5.572;2023-06-22T02:44:07;13.08;;;8.31;;
15516;SDS011;7860;52.030;5.572;2023-06-22T02:45:07;11.49;;;7.97;;
15516;SDS011;7860;52.030;5.572;2023-06-22T02:46:07;12.62;;;8.06;;
15516;SDS011;7860;52.030;5.572;2023-06-22T02:47:07;13.09;;;8.58;;
15516;SDS011;7860;52.030;5.572;2023-06-22T02:48:07;13.35;;;8.30;;
15516;SDS011;7860;52.030;5.572;2023-06-22T02:49:07;13.20;;;8.91;;
15516;SDS011;7860;52.030;5.572;2023-06-22T02:50:08;13.18;;;8.43;;
15516;SDS011;7860;52.030;5.572;2023-06-22T02:51:08;12.11;;;8.23;;
15516;SDS011;7860;52.030;5.572;2023-06-22T02:52:08;15.53;;;8.21;;
15516;SDS011;7860;52.030;5.572;2023-06-22T02:53:08;12.97;;;7.45;;
15516;SDS011;7860;52.030;5.572;2023-06-22T02:54:08;13.41;;;8.42;;
15516;SDS011;7860;52.030;5.572;2023-06-22T02:55:08;13.31;;;7.83;;
15516;SDS011;7860;52.030;5.572;2023-06-22T02:56:08;12.54;;;7.63;;
15516;SDS011;7860;52.030;5.572;2023-06-22T02:57:08;12.72;;;8.35;;
15516;SDS011;7860;52.030;5.572;2023-06-22T02:58:08;12.54;;;8.00;;
15516;SDS011;7860;52.030;5.572;2023-06-22T02:59:08;11.64;;;8.39;;
15516;SDS011;7860;52.030;5.572;2023-06-22T03:00:09;13.74;;;8.25;;
15516;SDS011;7860;52.030;5.572;2023-06-22T03:01:08;12.98;;;8.12;;
15516;SDS011;7860;52.030;5.572;2023-06-22T03:02:08;12.10;;;7.80;;
15516;SDS011;7860;52.030;5.572;2023-06-22T03:03:08;11.93;;;8.25;;
15516;SDS011;7860;52.030;5.572;2023-06-22T03:04:09;12.10;;;8.11;;
15516;SDS011;7860;52.030;5.572;2023-06-22T03:05:09;12.19;;;8.02;;
15516;SDS011;7860;52.030;5.572;2023-06-22T03:06:09;12.78;;;7.84;;
15516;SDS011;7860;52.030;5.572;2023-06-22T03:07:09;12.10;;;8.02;;
15516;SDS011;7860;52.030;5.572;2023-06-22T03:08:09;12.12;;;8.55;;
15516;SDS011;7860;52.030;5.572;2023-06-22T03:09:09;11.03;;;7.58;;
15516;SDS011;7860;52.030;5.572;2023-06-22T03:10:09;12.58;;;8.33;;
15516;SDS011;7860;52.030;5.572;2023-06-22T03:11:09;12.15;;;8.03;;
15516;SDS011;7860;52.030;5.572;2023-06-22T03:12:09;13.50;;;8.37;;
15516;SDS011;7860;52.030;5.572;2023-06-22T03:13:09;12.69;;;7.70;;
15516;SDS011;7860;52.030;5.572;2023-06-22T03:14:09;13.44;;;7.83;;
15516;SDS011;7860;52.030;5.572;2023-06-22T03:15:10;10.79;;;7.20;;
15516;SDS011;7860;52.030;5.572;2023-06-22T03:16:09;12.51;;;8.09;;
15516;SDS011;7860;52.030;5.572;2023-06-22T03:17:09;13.17;;;8.49;;
15516;SDS011;7860;52.030;5.572;2023-06-22T03:18:09;12.71;;;8.08;;
15516;SDS011;7860;52.030;5.572;2023-06-22T03:19:10;11.19;;;7.30;;
15516;SDS011;7860;52.030;5.572;2023-06-22T03:20:10;12.17;;;7.79;;
15516;SDS011;7860;52.030;5.572;2023-06-22T03:21:10;11.88;;;8.14;;
15516;SDS011;7860;52.030;5.572;2023-06-22T03:22:10;12.50;;;8.12;;
15516;SDS011;7860;52.030;5.572;2023-06-22T03:23:10;11.98;;;7.82;;
15516;SDS011;7860;52.030;5.572;2023-06-22T03:24:10;12.94;;;8.52;;
15516;SDS011;7860;52.030;5.572;2023-06-22T03:25:10;11.34;;;7.51;;
15516;SDS011;7860;52.030;5.572;2023-06-22T03:26:10;13.02;;;7.84;;
15516;SDS011;7860;52.030;5.572;2023-06-22T03:27:10;12.63;;;8.08;;
15516;SDS011;7860;52.030;5.572;2023-06-22T03:28:10;13.56;;;7.76;;
15516;SDS011;7860;52.030;5.572;2023-06-22T03:29:10;11.25;;;7.59;;
15516;SDS011;7860;52.030;5.572;2023-06-22T03:30:11;12.51;;;8.19;;
15516;SDS011;7860;52.030;5.572;2023-06-22T03:31:10;15.80;;;8.71;;
15516;SDS011;7860;52.030;5.572;2023-06-22T03:32:10;11.11;;;7.63;;
15516;SDS011;7860;52.030;5.572;2023-06-22T03:33:10;12.42;;;8.50;;
15516;SDS011;7860;52.030;5.572;2023-06-22T03:34:11;13.95;;;8.32;;
15516;SDS011;7860;52.030;5.572;2023-06-22T03:35:11;12.43;;;8.11;;
15516;SDS011;7860;52.030;5.572;2023-06-22T03:36:11;12.21;;;8.05;;
15516;SDS011;7860;52.030;5.572;2023-06-22T03:37:11;14.49;;;8.77;;
15516;SDS011;7860;52.030;5.572;2023-06-22T03:38:11;13.10;;;8.74;;
15516;SDS011;7860;52.030;5.572;2023-06-22T03:39:11;13.00;;;8.16;;
15516;SDS011;7860;52.030;5.572;2023-06-22T03:40:11;11.55;;;7.73;;
15516;SDS011;7860;52.030;5.572;2023-06-22T03:41:11;11.70;;;7.93;;
15516;SDS011;7860;52.030;5.572;2023-06-22T03:42:11;13.99;;;8.26;;
15516;SDS011;7860;52.030;5.572;2023-06-22T03:43:11;13.21;;;8.66;;
15516;SDS011;7860;52.030;5.572;2023-06-22T03:44:11;12.82;;;8.52;;
15516;SDS011;7860;52.030;5.572;2023-06-22T03:45:11;13.97;;;9.57;;
15516;SDS011;7860;52.030;5.572;2023-06-22T03:46:11;13.63;;;9.33;;
15516;SDS011;7860;52.030;5.572;2023-06-22T03:47:11;14.52;;;9.04;;
15516;SDS011;7860;52.030;5.572;2023-06-22T03:48:11;14.09;;;8.38;;
15516;SDS011;7860;52.030;5.572;2023-06-22T03:49:11;13.67;;;8.93;;
15516;SDS011;7860;52.030;5.572;2023-06-22T03:50:12;14.65;;;8.55;;
15516;SDS011;7860;52.030;5.572;2023-06-22T03:51:12;13.42;;;8.79;;
15516;SDS011;7860;52.030;5.572;2023-06-22T03:52:12;11.84;;;8.00;;
15516;SDS011;7860;52.030;5.572;2023-06-22T03:53:12;14.11;;;8.97;;
15516;SDS011;7860;52.030;5.572;2023-06-22T03:54:12;12.88;;;8.48;;
15516;SDS011;7860;52.030;5.572;2023-06-22T03:55:12;12.86;;;8.78;;
15516;SDS011;7860;52.030;5.572;2023-06-22T03:56:12;14.14;;;9.09;;
15516;SDS011;7860;52.030;5.572;2023-06-22T03:57:12;14.15;;;8.38;;
15516;SDS011;7860;52.030;5.572;2023-06-22T03:58:12;13.36;;;8.21;;
15516;SDS011;7860;52.030;5.572;2023-06-22T03:59:12;13.09;;;8.26;;
15516;SDS011;7860;52.030;5.572;2023-06-22T04:00:13;15.21;;;8.33;;
15516;SDS011;7860;52.030;5.572;2023-06-22T04:01:12;15.17;;;8.94;;
15516;SDS011;7860;52.030;5.572;2023-06-22T04:02:12;18.27;;;9.97;;
15516;SDS011;7860;52.030;5.572;2023-06-22T04:03:12;14.57;;;8.78;;
15516;SDS011;7860;52.030;5.572;2023-06-22T04:04:12;14.14;;;9.22;;
15516;SDS011;7860;52.030;5.572;2023-06-22T04:05:13;14.34;;;7.91;;
15516;SDS011;7860;52.030;5.572;2023-06-22T04:06:13;14.67;;;7.92;;
15516;SDS011;7860;52.030;5.572;2023-06-22T04:07:13;12.98;;;8.26;;
15516;SDS011;7860;52.030;5.572;2023-06-22T04:08:13;13.18;;;8.70;;
15516;SDS011;7860;52.030;5.572;2023-06-22T04:09:13;13.98;;;8.27;;
15516;SDS011;7860;52.030;5.572;2023-06-22T04:10:13;12.57;;;8.12;;
15516;SDS011;7860;52.030;5.572;2023-06-22T04:11:13;14.10;;;8.46;;
15516;SDS011;7860;52.030;5.572;2023-06-22T04:12:13;13.63;;;8.61;;
15516;SDS011;7860;52.030;5.572;2023-06-22T04:13:13;13.53;;;7.77;;
15516;SDS011;7860;52.030;5.572;2023-06-22T04:14:13;12.86;;;8.44;;
15516;SDS011;7860;52.030;5.572;2023-06-22T04:15:13;12.90;;;8.54;;
15516;SDS011;7860;52.030;5.572;2023-06-22T04:16:13;14.94;;;8.45;;
15516;SDS011;7860;52.030;5.572;2023-06-22T04:17:13;12.83;;;8.10;;
15516;SDS011;7860;52.030;5.572;2023-06-22T04:18:13;15.42;;;8.74;;
15516;SDS011;7860;52.030;5.572;2023-06-22T04:19:13;14.23;;;8.85;;
15516;SDS011;7860;52.030;5.572;2023-06-22T04:20:13;14.52;;;7.89;;
15516;SDS011;7860;52.030;5.572;2023-06-22T04:21:13;13.13;;;8.06;;
15516;SDS011;7860;52.030;5.572;2023-06-22T04:22:14;15.45;;;8.99;;
15516;SDS011;7860;52.030;5.572;2023-06-22T04:23:14;12.62;;;7.71;;
15516;SDS011;7860;52.030;5.572;2023-06-22T04:24:14;13.62;;;8.34;;
15516;SDS011;7860;52.030;5.572;2023-06-22T04:25:14;13.07;;;8.05;;
15516;SDS011;7860;52.030;5.572;2023-06-22T04:26:14;13.15;;;7.99;;
15516;SDS011;7860;52.030;5.572;2023-06-22T04:27:14;15.83;;;9.26;;
15516;SDS011;7860;52.030;5.572;2023-06-22T04:28:14;15.72;;;9.50;;
15516;SDS011;7860;52.030;5.572;2023-06-22T04:29:14;12.79;;;9.47;;
15516;SDS011;7860;52.030;5.572;2023-06-22T04:30:14;15.45;;;9.20;;
15516;SDS011;7860;52.030;5.572;2023-06-22T04:31:14;14.70;;;9.16;;
15516;SDS011;7860;52.030;5.572;2023-06-22T04:32:14;14.90;;;9.63;;
15516;SDS011;7860;52.030;5.572;2023-06-22T04:33:14;15.26;;;9.81;;
15516;SDS011;7860;52.030;5.572;2023-06-22T04:34:14;14.93;;;9.64;;
15516;SDS011;7860;52.030;5.572;2023-06-22T04:35:14;15.76;;;9.65;;
15516;SDS011;7860;52.030;5.572;2023-06-22T04:36:14;16.53;;;10.34;;
15516;SDS011;7860;52.030;5.572;2023-06-22T04:37:14;15.78;;;9.88;;
15516;SDS011;7860;52.030;5.572;2023-06-22T04:38:14;15.66;;;10.63;;
15516;SDS011;7860;52.030;5.572;2023-06-22T04:39:15;16.17;;;10.45;;
15516;SDS011;7860;52.030;5.572;2023-06-22T04:40:15;18.03;;;10.37;;
15516;SDS011;7860;52.030;5.572;2023-06-22T04:41:15;18.37;;;10.53;;
15516;SDS011;7860;52.030;5.572;2023-06-22T04:42:15;17.71;;;10.27;;
15516;SDS011;7860;52.030;5.572;2023-06-22T04:43:15;16.33;;;10.56;;
15516;SDS011;7860;52.030;5.572;2023-06-22T04:44:15;15.56;;;10.29;;
15516;SDS011;7860;52.030;5.572;2023-06-22T04:45:15;17.07;;;10.42;;
15516;SDS011;7860;52.030;5.572;2023-06-22T04:46:15;17.21;;;10.45;;
15516;SDS011;7860;52.030;5.572;2023-06-22T04:47:15;18.17;;;11.17;;
15516;SDS011;7860;52.030;5.572;2023-06-22T04:48:15;17.29;;;11.04;;
15516;SDS011;7860;52.030;5.572;2023-06-22T04:49:15;15.45;;;10.67;;
15516;SDS011;7860;52.030;5.572;2023-06-22T04:50:15;17.82;;;11.00;;
15516;SDS011;7860;52.030;5.572;2023-06-22T04:51:15;18.18;;;11.16;;
15516;SDS011;7860;52.030;5.572;2023-06-22T04:52:15;18.65;;;11.47;;
15516;SDS011;7860;52.030;5.572;2023-06-22T04:53:16;17.94;;;11.80;;
15516;SDS011;7860;52.030;5.572;2023-06-22T04:54:16;17.38;;;11.45;;
15516;SDS011;7860;52.030;5.572;2023-06-22T04:55:16;18.09;;;11.41;;
15516;SDS011;7860;52.030;5.572;2023-06-22T04:56:16;17.81;;;12.16;;
15516;SDS011;7860;52.030;5.572;2023-06-22T04:57:16;16.66;;;11.97;;
15516;SDS011;7860;52.030;5.572;2023-06-22T04:58:16;17.55;;;11.82;;
15516;SDS011;7860;52.030;5.572;2023-06-22T04:59:16;19.47;;;12.48;;
15516;SDS011;7860;52.030;5.572;2023-06-22T05:00:16;19.84;;;12.86;;
15516;SDS011;7860;52.030;5.572;2023-06-22T05:01:16;17.04;;;12.41;;
15516;SDS011;7860;52.030;5.572;2023-06-22T05:02:16;21.25;;;13.21;;
15516;SDS011;7860;52.030;5.572;2023-06-22T05:03:16;19.58;;;12.41;;
15516;SDS011;7860;52.030;5.572;2023-06-22T05:04:16;19.59;;;13.28;;
15516;SDS011;7860;52.030;5.572;2023-06-22T05:05:16;18.83;;;12.77;;
15516;SDS011;7860;52.030;5.572;2023-06-22T05:06:16;19.12;;;13.00;;
15516;SDS011;7860;52.030;5.572;2023-06-22T05:07:16;18.87;;;13.09;;
15516;SDS011;7860;52.030;5.572;2023-06-22T05:08:17;21.35;;;13.34;;
15516;SDS011;7860;52.030;5.572;2023-06-22T05:09:17;20.59;;;14.22;;
15516;SDS011;7860;52.030;5.572;2023-06-22T05:10:17;23.39;;;14.73;;
15516;SDS011;7860;52.030;5.572;2023-06-22T05:11:17;22.14;;;14.82;;
15516;SDS011;7860;52.030;5.572;2023-06-22T05:12:17;18.70;;;13.23;;
15516;SDS011;7860;52.030;5.572;2023-06-22T05:13:17;20.28;;;14.46;;
15516;SDS011;7860;52.030;5.572;2023-06-22T05:14:17;22.38;;;14.66;;
15516;SDS011;7860;52.030;5.572;2023-06-22T05:15:17;24.72;;;15.22;;
15516;SDS011;7860;52.030;5.572;2023-06-22T05:16:17;21.36;;;14.81;;
15516;SDS011;7860;52.030;5.572;2023-06-22T05:17:17;21.61;;;15.65;;
15516;SDS011;7860;52.030;5.572;2023-06-22T05:18:17;21.78;;;14.65;;
15516;SDS011;7860;52.030;5.572;2023-06-22T05:19:17;22.04;;;15.76;;
15516;SDS011;7860;52.030;5.572;2023-06-22T05:20:18;26.50;;;16.46;;
15516;SDS011;7860;52.030;5.572;2023-06-22T05:21:17;22.58;;;15.78;;
15516;SDS011;7860;52.030;5.572;2023-06-22T05:22:18;24.49;;;16.48;;
15516;SDS011;7860;52.030;5.572;2023-06-22T05:23:18;21.46;;;14.92;;
15516;SDS011;7860;52.030;5.572;2023-06-22T05:24:18;21.88;;;15.72;;
15516;SDS011;7860;52.030;5.572;2023-06-22T05:25:18;22.76;;;14.24;;
15516;SDS011;7860;52.030;5.572;2023-06-22T05:26:18;25.46;;;15.74;;
15516;SDS011;7860;52.030;5.572;2023-06-22T05:27:18;19.94;;;13.98;;
15516;SDS011;7860;52.030;5.572;2023-06-22T05:28:18;23.67;;;14.90;;
15516;SDS011;7860;52.030;5.572;2023-06-22T05:29:18;21.03;;;15.73;;
15516;SDS011;7860;52.030;5.572;2023-06-22T05:30:18;22.64;;;15.49;;
15516;SDS011;7860;52.030;5.572;2023-06-22T05:31:18;22.76;;;16.12;;
15516;SDS011;7860;52.030;5.572;2023-06-22T05:32:18;22.48;;;15.73;;
15516;SDS011;7860;52.030;5.572;2023-06-22T05:33:18;21.88;;;16.35;;
15516;SDS011;7860;52.030;5.572;2023-06-22T05:34:18;23.98;;;15.75;;
15516;SDS011;7860;52.030;5.572;2023-06-22T05:35:19;25.17;;;16.51;;
15516;SDS011;7860;52.030;5.572;2023-06-22T05:36:19;23.42;;;16.16;;
15516;SDS011;7860;52.030;5.572;2023-06-22T05:37:19;20.74;;;14.56;;
15516;SDS011;7860;52.030;5.572;2023-06-22T05:38:19;21.29;;;14.89;;
15516;SDS011;7860;52.030;5.572;2023-06-22T05:39:19;24.26;;;16.53;;
15516;SDS011;7860;52.030;5.572;2023-06-22T05:40:19;22.96;;;15.98;;
15516;SDS011;7860;52.030;5.572;2023-06-22T05:41:19;22.70;;;16.79;;
15516;SDS011;7860;52.030;5.572;2023-06-22T05:42:19;22.73;;;16.40;;
15516;SDS011;7860;52.030;5.572;2023-06-22T05:43:19;24.56;;;17.22;;
15516;SDS011;7860;52.030;5.572;2023-06-22T05:44:19;23.63;;;16.59;;
15516;SDS011;7860;52.030;5.572;2023-06-22T05:45:19;24.00;;;17.75;;
15516;SDS011;7860;52.030;5.572;2023-06-22T05:46:19;23.80;;;17.39;;
15516;SDS011;7860;52.030;5.572;2023-06-22T05:47:19;24.82;;;17.47;;
15516;SDS011;7860;52.030;5.572;2023-06-22T05:48:20;28.18;;;17.89;;
15516;SDS011;7860;52.030;5.572;2023-06-22T05:49:23;23.28;;;17.38;;
15516;SDS011;7860;52.030;5.572;2023-06-22T05:50:20;25.13;;;18.34;;
15516;SDS011;7860;52.030;5.572;2023-06-22T05:51:20;23.92;;;17.74;;
15516;SDS011;7860;52.030;5.572;2023-06-22T05:52:20;26.21;;;18.18;;
15516;SDS011;7860;52.030;5.572;2023-06-22T05:53:20;27.35;;;18.06;;
15516;SDS011;7860;52.030;5.572;2023-06-22T05:54:20;23.85;;;18.26;;
15516;SDS011;7860;52.030;5.572;2023-06-22T05:55:20;25.00;;;17.67;;
15516;SDS011;7860;52.030;5.572;2023-06-22T05:56:20;23.55;;;17.92;;
15516;SDS011;7860;52.030;5.572;2023-06-22T05:57:20;23.83;;;17.75;;
15516;SDS011;7860;52.030;5.572;2023-06-22T05:58:20;24.78;;;18.37;;
15516;SDS011;7860;52.030;5.572;2023-06-22T05:59:20;25.98;;;18.51;;
15516;SDS011;7860;52.030;5.572;2023-06-22T06:00:21;25.22;;;18.53;;
15516;SDS011;7860;52.030;5.572;2023-06-22T06:01:21;24.86;;;17.61;;